createdAt,value
2022-08-24T00:01:00.440Z,15.00
2022-08-24T00:05:03.599Z,15.00
2022-08-24T00:09:05.859Z,15.00
2022-08-24T00:13:09.365Z,15.00
2022-08-24T00:17:12.358Z,15.00
2022-08-24T00:21:14.526Z,15.00
2022-08-24T00:25:17.576Z,15.00
2022-08-24T00:29:21.679Z,15.00
2022-08-24T00:33:24.116Z,15.00
2022-08-24T00:37:28.831Z,15.10
2022-08-24T00:41:31.565Z,15.10
2022-08-24T00:45:48.740Z,15.10
2022-08-24T00:49:56.746Z,15.00
2022-08-24T00:54:04.898Z,15.00
2022-08-24T00:58:17.157Z,15.10
2022-08-24T01:02:26.709Z,15.10
2022-08-24T01:06:29.463Z,15.10
2022-08-24T01:10:38.076Z,15.10
2022-08-24T01:14:40.350Z,15.10
2022-08-24T01:18:51.827Z,15.10
2022-08-24T01:23:08.087Z,15.10
2022-08-24T01:27:12.048Z,15.10
2022-08-24T01:31:14.711Z,15.10
2022-08-24T01:35:17.211Z,15.10
2022-08-24T01:39:37.946Z,15.20
2022-08-24T01:43:40.231Z,15.20
2022-08-24T01:47:43.063Z,15.20
2022-08-24T01:51:46.534Z,15.20
2022-08-24T01:55:48.973Z,15.20
2022-08-24T01:59:52.616Z,15.30
2022-08-24T02:03:56.317Z,15.30
2022-08-24T02:07:58.443Z,15.30
2022-08-24T02:12:00.741Z,15.30
2022-08-24T02:16:03.468Z,15.30
2022-08-24T02:20:09.192Z,15.30
2022-08-24T02:24:11.997Z,15.30
2022-08-24T02:28:14.567Z,15.30
2022-08-24T02:32:16.870Z,15.30
2022-08-24T02:36:25.079Z,15.30
2022-08-24T02:40:32.833Z,15.30
2022-08-24T02:44:36.045Z,15.30
2022-08-24T02:48:38.299Z,15.30
2022-08-24T02:52:42.284Z,15.30
2022-08-24T02:56:45.723Z,15.30
2022-08-24T03:00:48.853Z,15.30
2022-08-24T03:04:54.303Z,15.30
2022-08-24T03:08:57.034Z,15.30
2022-08-24T03:13:01.555Z,15.30
2022-08-24T03:17:04.428Z,15.30
2022-08-24T03:21:06.789Z,15.30
2022-08-24T03:25:16.976Z,15.30
2022-08-24T03:29:20.461Z,15.30
2022-08-24T03:33:27.149Z,15.30
2022-08-24T03:37:29.783Z,15.30
2022-08-24T03:41:35.353Z,15.30
2022-08-24T03:45:39.579Z,15.30
2022-08-24T03:49:42.444Z,15.30
2022-08-24T03:53:45.575Z,15.30
2022-08-24T03:57:48.021Z,15.30
2022-08-24T04:01:51.177Z,15.30
2022-08-24T04:05:53.108Z,15.30
2022-08-24T04:09:55.498Z,15.30
2022-08-24T04:13:58.985Z,15.30
2022-08-24T04:18:01.197Z,15.30
2022-08-24T04:22:03.718Z,15.30
2022-08-24T04:26:06.520Z,15.30
2022-08-24T04:30:09.808Z,15.30
2022-08-24T04:34:32.194Z,15.30
2022-08-24T04:38:35.032Z,15.30
2022-08-24T04:43:09.762Z,15.40
2022-08-24T04:47:13.191Z,15.40
2022-08-24T04:51:18.589Z,15.40
2022-08-24T04:55:20.640Z,15.40
2022-08-24T04:59:22.773Z,15.40
2022-08-24T05:03:25.216Z,15.50
2022-08-24T05:07:27.438Z,15.50
2022-08-24T05:11:29.593Z,15.60
2022-08-24T05:15:32.556Z,15.70
2022-08-24T05:19:34.914Z,15.70
2022-08-24T05:23:39.069Z,15.70
2022-08-24T05:27:47.589Z,15.70
2022-08-24T05:31:50.262Z,15.80
2022-08-24T05:35:52.824Z,15.80
2022-08-24T05:39:55.179Z,15.80
2022-08-24T05:43:57.521Z,15.80
2022-08-24T05:48:00.424Z,15.90
2022-08-24T05:52:22.546Z,15.80
2022-08-24T05:56:27.697Z,15.90
2022-08-24T06:00:34.235Z,16.00
2022-08-24T06:04:38.323Z,16.10
2022-08-24T06:08:44.495Z,16.20
2022-08-24T06:12:47.548Z,16.20
2022-08-24T06:16:50.321Z,16.30
2022-08-24T06:20:52.701Z,16.40
2022-08-24T06:25:18.426Z,16.50
2022-08-24T06:29:21.720Z,16.60
2022-08-24T06:33:29.093Z,16.60
2022-08-24T06:37:33.476Z,16.60
2022-08-24T06:41:37.801Z,16.70
2022-08-24T06:45:45.167Z,16.90
2022-08-24T06:49:49.716Z,16.90
2022-08-24T06:53:52.152Z,16.90
2022-08-24T06:57:55.484Z,17.00
2022-08-24T07:01:58.391Z,17.00
2022-08-24T07:06:04.711Z,17.10
2022-08-24T07:10:11.642Z,17.20
2022-08-24T07:14:14.244Z,17.30
2022-08-24T07:18:19.975Z,17.50
2022-08-24T07:22:24.025Z,17.70
2022-08-24T07:26:30.202Z,17.90
2022-08-24T07:30:32.666Z,17.90
2022-08-24T07:34:36.196Z,17.90
2022-08-24T07:38:39.237Z,18.10
2022-08-24T07:42:41.629Z,18.20
2022-08-24T07:46:44.065Z,18.30
2022-08-24T07:50:48.218Z,18.40
2022-08-24T07:54:50.544Z,18.70
2022-08-24T07:58:54.412Z,18.60
2022-08-24T08:02:58.286Z,18.70
2022-08-24T08:07:03.411Z,18.60
2022-08-24T08:11:09.346Z,18.60
2022-08-24T08:15:12.801Z,18.70
2022-08-24T08:19:22.839Z,18.70
2022-08-24T08:24:03.983Z,18.70
2022-08-24T08:28:25.372Z,18.70
2022-08-24T08:32:29.751Z,18.70
2022-08-24T08:36:32.796Z,19.00
2022-08-24T08:40:56.546Z,19.10
2022-08-24T08:45:07.117Z,19.30
2022-08-24T08:49:35.826Z,19.60
2022-08-24T08:54:24.159Z,19.70
2022-08-24T08:58:57.413Z,19.40
2022-08-24T09:03:08.814Z,19.40
2022-08-24T09:07:27.713Z,19.30
2022-08-24T09:11:53.077Z,19.20
2022-08-24T09:16:26.743Z,19.60
2022-08-24T09:21:01.949Z,19.70
2022-08-24T09:25:28.914Z,19.80
2022-08-24T09:30:09.973Z,20.00
2022-08-24T09:34:34.954Z,20.00
2022-08-24T09:39:07.808Z,20.10
2022-08-24T09:43:38.879Z,20.00
2022-08-24T09:48:15.914Z,19.90
2022-08-24T09:52:40.687Z,20.00
2022-08-24T09:57:09.351Z,20.10
2022-08-24T10:01:23.426Z,20.10
2022-08-24T10:05:51.328Z,20.30
2022-08-24T10:10:12.711Z,20.40
2022-08-24T10:14:36.877Z,20.30
2022-08-24T10:18:45.581Z,20.30
2022-08-24T10:22:47.844Z,20.50
2022-08-24T10:27:06.696Z,20.50
2022-08-24T10:31:13.143Z,20.70
2022-08-24T10:35:26.177Z,20.80
2022-08-24T10:39:50.732Z,21.10
2022-08-24T10:44:11.392Z,21.40
2022-08-24T10:48:33.455Z,21.50
2022-08-24T10:53:18.817Z,21.40
2022-08-24T10:57:39.443Z,21.20
2022-08-24T11:02:00.444Z,21.40
2022-08-24T11:06:15.364Z,21.10
2022-08-24T11:10:29.115Z,21.50
2022-08-24T11:14:32.132Z,22.00
2022-08-24T11:18:52.529Z,22.30
2022-08-24T11:22:57.833Z,22.50
2022-08-24T11:27:18.771Z,22.20
2022-08-24T11:31:40.317Z,22.40
2022-08-24T11:35:42.296Z,22.70
2022-08-24T11:39:44.496Z,22.60
2022-08-24T11:44:18.342Z,22.60
2022-08-24T11:48:54.441Z,22.80
2022-08-24T11:53:24.368Z,22.90
2022-08-24T11:57:38.400Z,23.10
2022-08-24T12:01:56.088Z,23.00
2022-08-24T12:06:13.634Z,23.00
2022-08-24T12:10:19.387Z,23.10
2022-08-24T12:15:02.038Z,23.30
2022-08-24T12:19:35.655Z,23.30
2022-08-24T12:23:40.601Z,22.80
2022-08-24T12:27:43.318Z,22.80
2022-08-24T12:31:56.295Z,23.00
2022-08-24T12:36:06.930Z,23.20
2022-08-24T12:40:23.773Z,23.10
2022-08-24T12:44:35.808Z,23.20
2022-08-24T12:48:43.954Z,23.10
2022-08-24T12:52:52.207Z,23.10
2022-08-24T12:57:31.732Z,22.90
2022-08-24T13:01:41.116Z,22.80
2022-08-24T13:05:48.778Z,22.70
2022-08-24T13:09:54.019Z,23.00
2022-08-24T13:14:18.712Z,23.10
2022-08-24T13:18:20.817Z,23.10
2022-08-24T13:22:47.321Z,23.60
2022-08-24T13:26:49.626Z,23.90
2022-08-24T13:31:23.165Z,24.10
2022-08-24T13:35:53.919Z,23.90
2022-08-24T13:40:09.759Z,23.90
2022-08-24T13:44:32.985Z,23.70
2022-08-24T13:48:47.675Z,23.60
2022-08-24T13:53:08.376Z,23.60
2022-08-24T13:57:34.967Z,23.60
2022-08-24T14:02:02.206Z,23.40
2022-08-24T14:06:55.571Z,23.10
2022-08-24T14:11:15.844Z,23.10
2022-08-24T14:16:16.213Z,23.30
2022-08-24T14:20:55.856Z,23.20
2022-08-24T14:25:33.223Z,22.80
2022-08-24T14:29:42.026Z,22.70
2022-08-24T14:33:54.900Z,22.70
2022-08-24T14:38:32.571Z,22.90
2022-08-24T14:42:45.580Z,23.00
2022-08-24T14:47:26.566Z,23.20
2022-08-24T14:51:56.727Z,23.60
2022-08-24T14:56:19.975Z,23.90
2022-08-24T15:00:47.290Z,24.10
2022-08-24T15:05:08.927Z,23.90
2022-08-24T15:09:28.074Z,23.60
2022-08-24T15:13:58.496Z,23.40
2022-08-24T15:18:08.455Z,23.30
2022-08-24T15:22:28.152Z,23.30
2022-08-24T15:26:52.289Z,23.20
2022-08-24T15:31:08.317Z,23.30
2022-08-24T15:35:34.885Z,23.60
2022-08-24T15:39:39.052Z,23.90
2022-08-24T15:43:51.059Z,24.00
2022-08-24T15:48:01.765Z,24.10
2022-08-24T15:52:09.961Z,23.90
2022-08-24T15:56:40.672Z,23.90
2022-08-24T16:01:05.089Z,23.80
2022-08-24T16:05:25.371Z,23.70
2022-08-24T16:09:29.895Z,23.60
2022-08-24T16:13:33.616Z,23.60
2022-08-24T16:17:53.942Z,23.40
2022-08-24T16:22:01.336Z,23.20
2022-08-24T16:26:27.425Z,23.00
2022-08-24T16:30:39.098Z,22.90
2022-08-24T16:34:47.751Z,22.80
2022-08-24T16:38:51.844Z,22.80
2022-08-24T16:42:55.619Z,22.80
2022-08-24T16:46:57.738Z,22.70
2022-08-24T16:50:59.935Z,22.60
2022-08-24T16:55:02.508Z,22.50
2022-08-24T16:59:04.760Z,22.40
2022-08-24T17:03:08.235Z,22.30
2022-08-24T17:07:22.596Z,22.10
2022-08-24T17:11:25.747Z,21.90
2022-08-24T17:15:28.184Z,21.80
2022-08-24T17:19:31.621Z,21.70
2022-08-24T17:23:34.426Z,21.60
2022-08-24T17:27:37.532Z,21.50
2022-08-24T17:31:39.969Z,21.40
2022-08-24T17:35:42.263Z,21.20
2022-08-24T17:39:44.894Z,21.10
2022-08-24T17:43:47.322Z,21.00
2022-08-24T17:47:50.821Z,20.80
2022-08-24T17:51:53.826Z,20.70
2022-08-24T17:55:56.035Z,20.70
2022-08-24T17:59:58.705Z,20.50
2022-08-24T18:04:01.018Z,20.40
2022-08-24T18:08:04.289Z,20.30
2022-08-24T18:12:08.094Z,20.20
2022-08-24T18:16:16.951Z,20.10
2022-08-24T18:20:25.846Z,20.00
2022-08-24T18:24:32.713Z,19.90
2022-08-24T18:28:36.019Z,19.90
2022-08-24T18:32:40.086Z,19.80
2022-08-24T18:36:42.484Z,19.80
2022-08-24T18:40:52.278Z,19.70
2022-08-24T18:44:55.901Z,19.70
2022-08-24T18:48:59.469Z,19.70
2022-08-24T18:53:02.441Z,19.60
2022-08-24T18:57:07.112Z,19.60
2022-08-24T19:01:10.166Z,19.60
2022-08-24T19:05:20.614Z,19.60
2022-08-24T19:09:22.709Z,19.60
2022-08-24T19:13:24.632Z,19.60
2022-08-24T19:17:27.175Z,19.60
2022-08-24T19:21:31.298Z,19.50
2022-08-24T19:25:35.371Z,19.50
2022-08-24T19:34:03.488Z,19.60
2022-08-24T19:38:06.021Z,19.50
2022-08-24T19:42:10.984Z,19.50
2022-08-24T19:46:13.301Z,19.40
2022-08-24T19:50:21.235Z,19.40
2022-08-24T19:54:23.980Z,19.30
2022-08-24T19:58:36.192Z,19.30
2022-08-24T20:02:38.382Z,19.20
2022-08-24T20:06:41.013Z,19.20
2022-08-24T20:10:43.286Z,19.20
2022-08-24T20:14:45.212Z,19.10
2022-08-24T20:18:48.337Z,19.10
2022-08-24T20:22:51.100Z,19.10
2022-08-24T20:26:53.646Z,19.00
2022-08-24T20:30:55.947Z,19.00
2022-08-24T20:34:58.285Z,19.00
2022-08-24T20:39:01.835Z,19.00
2022-08-24T20:43:04.181Z,18.90
2022-08-24T20:47:06.956Z,18.90
2022-08-24T20:51:09.165Z,18.90
2022-08-24T20:55:14.255Z,19.00
2022-08-24T20:59:16.764Z,19.00
2022-08-24T21:03:19.362Z,19.00
2022-08-24T21:07:21.645Z,19.00
2022-08-24T21:11:23.685Z,19.00
2022-08-24T21:15:26.388Z,19.00
2022-08-24T21:19:30.241Z,19.00
2022-08-24T21:23:34.350Z,18.90
2022-08-24T21:27:39.825Z,18.90
2022-08-24T21:32:03.187Z,18.80
2022-08-24T21:36:05.969Z,18.80
2022-08-24T21:40:10.308Z,18.80
2022-08-24T21:44:12.672Z,18.80
2022-08-24T21:48:14.931Z,18.80
2022-08-24T21:52:17.885Z,18.70
2022-08-24T21:56:25.575Z,18.60
2022-08-24T22:00:28.159Z,18.60
2022-08-24T22:04:30.733Z,18.60
2022-08-24T22:08:32.901Z,18.60
2022-08-24T22:12:39.359Z,18.60
2022-08-24T22:16:41.645Z,18.60
2022-08-24T22:20:43.768Z,18.50
2022-08-24T22:24:46.010Z,18.50
2022-08-24T22:28:48.258Z,18.50
2022-08-24T22:32:50.450Z,18.40
2022-08-24T22:36:52.904Z,18.40
2022-08-24T22:40:56.375Z,18.30
2022-08-24T22:45:00.072Z,18.30
2022-08-24T22:49:04.081Z,18.20
2022-08-24T22:53:06.773Z,18.20
2022-08-24T22:57:09.629Z,18.10
2022-08-24T23:01:19.673Z,18.00
2022-08-24T23:05:22.019Z,17.90
2022-08-24T23:09:25.057Z,17.90
2022-08-24T23:13:28.793Z,17.80
2022-08-24T23:17:31.278Z,17.80
2022-08-24T23:21:33.969Z,17.80
2022-08-24T23:25:35.930Z,17.80
2022-08-24T23:29:39.820Z,17.90
2022-08-24T23:33:42.151Z,17.90
2022-08-24T23:37:45.736Z,17.90
2022-08-24T23:41:48.681Z,17.90
2022-08-24T23:45:53.356Z,18.00
2022-08-24T23:49:55.705Z,18.00
2022-08-24T23:53:58.222Z,18.00
2022-08-24T23:58:00.823Z,18.10
